Time;durP1;ratioP1;P1;durP2;ratioP2;P2;SDS_P1;SDS_P2;PMS_P1;PMS_P2;Temp;Humidity;BMP_temperature;BMP_pressure;BME280_temperature;BME280_humidity;BME280_pressure;Samples;Min_cycle;Max_cycle;Signal;HPM_P1;HPM_P2
2023/10/26 00:02:00;;;;;;;12.65;7.70;;;12.70;84.30;;;;;;5082317;28;20055;-67
2023/10/26 00:04:25;;;;;;;13.35;7.57;;;12.70;84.30;;;;;;5091184;28;21743;-66
2023/10/26 00:06:51;;;;;;;11.88;8.10;;;12.70;84.30;;;;;;5095435;28;20199;-67
2023/10/26 00:09:17;;;;;;;12.20;7.38;;;12.70;84.30;;;;;;5081082;28;20019;-66
2023/10/26 00:11:43;;;;;;;11.70;7.88;;;12.70;84.30;;;;;;5093419;28;20108;-67
2023/10/26 00:14:08;;;;;;;11.45;8.13;;;12.70;84.20;;;;;;5096643;28;20016;-66
2023/10/26 00:16:34;;;;;;;11.15;7.35;;;12.70;84.30;;;;;;5095114;28;20448;-67
2023/10/26 00:19:02;;;;;;;10.75;7.45;;;12.70;84.20;;;;;;5078041;28;20039;-66
2023/10/26 00:21:27;;;;;;;11.70;7.82;;;12.70;84.20;;;;;;5094729;28;20030;-66
2023/10/26 00:23:53;;;;;;;12.30;7.90;;;12.70;84.20;;;;;;5092478;28;20020;-66
2023/10/26 00:26:19;;;;;;;10.48;7.00;;;12.70;84.10;;;;;;5090576;28;20069;-66
2023/10/26 00:28:49;;;;;;;12.93;7.85;;;12.70;84.10;;;;;;5092902;28;20038;-66
2023/10/26 00:31:14;;;;;;;12.50;7.68;;;12.70;84.70;;;;;;5089623;28;20028;-67
2023/10/26 00:33:40;;;;;;;11.35;7.38;;;12.60;84.00;;;;;;5091679;28;20036;-67
2023/10/26 00:36:06;;;;;;;13.02;7.20;;;12.60;84.00;;;;;;5078783;28;20032;-66
2023/10/26 00:38:32;;;;;;;11.40;7.57;;;12.60;84.00;;;;;;5090533;28;20028;-66
2023/10/26 00:40:58;;;;;;;12.30;8.25;;;12.60;84.00;;;;;;5087382;28;20016;-66
2023/10/26 00:43:25;;;;;;;11.68;7.53;;;12.60;84.00;;;;;;5089990;28;20016;-67
2023/10/26 00:45:52;;;;;;;12.63;8.60;;;12.50;83.90;;;;;;5088734;28;20025;-66
2023/10/26 00:48:21;;;;;;;11.77;8.10;;;12.50;83.90;;;;;;5092604;28;20073;-66
2023/10/26 00:50:48;;;;;;;12.15;8.13;;;12.50;83.90;;;;;;5089813;28;20452;-66
2023/10/26 00:53:19;;;;;;;12.57;8.75;;;12.40;83.80;;;;;;5091266;28;20084;-66
2023/10/26 00:55:48;;;;;;;12.32;8.52;;;12.50;83.90;;;;;;5090705;28;20047;-66
2023/10/26 00:58:15;;;;;;;13.07;8.48;;;12.40;83.80;;;;;;5090137;28;20070;-66
2023/10/26 01:00:41;;;;;;;14.27;9.05;;;12.40;83.80;;;;;;5091070;28;20415;-66
2023/10/26 01:03:07;;;;;;;13.18;8.35;;;12.40;83.80;;;;;;5090152;28;20077;-66
2023/10/26 01:05:33;;;;;;;12.30;8.07;;;12.40;83.80;;;;;;5088996;28;20012;-66
2023/10/26 01:07:59;;;;;;;12.70;8.93;;;12.40;83.80;;;;;;5072939;28;20387;-66
2023/10/26 01:10:26;;;;;;;16.42;9.27;;;12.30;83.80;;;;;;5092520;28;20036;-66
2023/10/26 01:12:53;;;;;;;17.50;9.27;;;12.30;83.80;;;;;;5088603;28;20532;-66
2023/10/26 01:15:19;;;;;;;12.93;9.27;;;12.30;83.90;;;;;;5089994;28;20035;-66
2023/10/26 01:17:45;;;;;;;13.32;8.50;;;12.20;83.80;;;;;;5091148;28;20028;-66
2023/10/26 01:20:18;;;;;;;12.60;8.40;;;12.20;83.80;;;;;;5088838;28;20076;-66
2023/10/26 01:22:44;;;;;;;14.30;8.77;;;12.20;83.80;;;;;;5091380;28;20077;-67
2023/10/26 01:25:10;;;;;;;13.20;8.05;;;12.20;83.80;;;;;;5087229;28;20383;-66
2023/10/26 01:27:37;;;;;;;13.05;8.23;;;12.20;83.70;;;;;;5088987;28;20483;-67
2023/10/26 01:30:03;;;;;;;12.48;8.68;;;12.20;83.80;;;;;;5093257;28;20504;-66
2023/10/26 01:32:29;;;;;;;13.27;8.90;;;12.20;83.80;;;;;;5090727;28;20399;-66
2023/10/26 01:34:54;;;;;;;12.52;8.45;;;12.10;83.70;;;;;;5090882;28;20090;-66
2023/10/26 01:37:20;;;;;;;13.10;8.43;;;12.20;83.80;;;;;;5078012;28;20032;-66
2023/10/26 01:39:46;;;;;;;12.18;7.75;;;12.20;83.70;;;;;;5090134;28;20368;-66
2023/10/26 01:42:12;;;;;;;13.32;7.75;;;12.20;83.70;;;;;;5085801;28;20054;-66
2023/10/26 01:44:39;;;;;;;12.43;8.05;;;12.10;83.60;;;;;;5091309;28;20024;-66
2023/10/26 01:47:06;;;;;;;11.25;7.43;;;12.10;83.60;;;;;;5088382;28;20411;-67
2023/10/26 01:49:31;;;;;;;12.20;8.23;;;12.10;83.60;;;;;;5093480;28;20024;-66
2023/10/26 01:51:57;;;;;;;11.13;7.60;;;12.10;83.60;;;;;;5091796;28;20020;-67
2023/10/26 01:54:23;;;;;;;11.63;7.38;;;12.10;83.70;;;;;;5091704;28;20043;-66
2023/10/26 01:56:49;;;;;;;12.13;8.35;;;12.10;83.70;;;;;;5091991;28;20059;-66
2023/10/26 01:59:15;;;;;;;13.93;8.20;;;12.10;83.70;;;;;;5091508;28;20138;-66
2023/10/26 02:01:40;;;;;;;12.23;8.15;;;12.10;83.70;;;;;;5089785;28;20040;-66
2023/10/26 02:04:06;;;;;;;13.80;8.27;;;12.10;83.70;;;;;;5092512;28;20031;-66
2023/10/26 02:06:32;;;;;;;14.30;8.95;;;12.20;83.80;;;;;;5089201;28;20026;-66
2023/10/26 02:08:58;;;;;;;13.07;8.80;;;12.20;83.80;;;;;;5094580;28;20031;-66
2023/10/26 02:11:23;;;;;;;12.68;8.77;;;12.20;83.70;;;;;;5096535;28;20429;-66
2023/10/26 02:13:49;;;;;;;14.98;8.80;;;12.20;83.80;;;;;;5092099;28;20020;-66
2023/10/26 02:16:17;;;;;;;14.38;9.20;;;12.20;83.80;;;;;;5094104;28;20024;-66
2023/10/26 02:18:44;;;;;;;13.98;9.98;;;12.20;83.90;;;;;;5092243;28;20031;-66
2023/10/26 02:21:10;;;;;;;15.32;10.35;;;12.20;83.90;;;;;;5094097;28;20031;-66
2023/10/26 02:23:36;;;;;;;14.90;10.25;;;12.20;83.80;;;;;;5092623;28;20020;-66
2023/10/26 02:26:02;;;;;;;13.60;9.65;;;12.20;83.90;;;;;;5095838;28;20024;-66
2023/10/26 02:28:28;;;;;;;14.77;9.88;;;12.20;83.90;;;;;;5096648;28;20041;-66
2023/10/26 02:30:53;;;;;;;15.57;10.43;;;12.20;84.00;;;;;;5096434;28;20074;-66
2023/10/26 02:33:19;;;;;;;14.60;10.52;;;12.20;84.00;;;;;;5097021;28;20028;-66
2023/10/26 02:35:45;;;;;;;16.38;10.02;;;12.20;84.00;;;;;;5098610;28;20028;-66
2023/10/26 02:38:11;;;;;;;13.90;9.70;;;12.20;84.00;;;;;;5096940;28;20067;-66
2023/10/26 02:40:38;;;;;;;13.85;9.90;;;12.20;84.00;;;;;;5097396;28;20020;-67
2023/10/26 02:43:04;;;;;;;14.98;10.30;;;12.20;84.00;;;;;;5096508;28;20387;-66
2023/10/26 02:45:30;;;;;;;15.45;10.73;;;12.20;84.00;;;;;;5097561;28;20410;-67
2023/10/26 02:47:58;;;;;;;15.57;10.82;;;12.20;84.00;;;;;;5094670;28;20516;-66
2023/10/26 02:50:24;;;;;;;17.55;10.77;;;12.20;84.10;;;;;;5097331;28;20406;-66
2023/10/26 02:52:50;;;;;;;15.90;11.10;;;12.20;84.10;;;;;;5096202;28;20024;-66
2023/10/26 02:55:16;;;;;;;17.92;11.52;;;12.20;84.20;;;;;;5100423;28;20058;-66
2023/10/26 02:57:43;;;;;;;15.20;10.32;;;12.20;84.10;;;;;;5094493;28;20379;-66
2023/10/26 03:00:09;;;;;;;15.93;10.40;;;12.20;84.10;;;;;;5096879;28;20024;-66
2023/10/26 03:02:35;;;;;;;14.75;10.18;;;12.20;84.10;;;;;;5097255;28;20056;-66
2023/10/26 03:05:02;;;;;;;14.88;10.05;;;12.20;84.10;;;;;;5096504;28;20044;-66
2023/10/26 03:07:28;;;;;;;17.60;11.15;;;12.20;84.10;;;;;;5097656;28;20451;-66
2023/10/26 03:09:54;;;;;;;13.82;9.77;;;12.20;84.00;;;;;;5077381;28;20020;-67
2023/10/26 03:12:20;;;;;;;17.23;11.50;;;12.10;84.00;;;;;;5096805;28;20376;-66
2023/10/26 03:14:46;;;;;;;15.60;11.38;;;12.20;84.10;;;;;;5095375;28;20023;-66
2023/10/26 03:17:15;;;;;;;15.93;10.73;;;12.10;84.00;;;;;;5096819;28;20035;-66
2023/10/26 03:19:44;;;;;;;15.77;10.13;;;12.10;84.10;;;;;;5094534;28;20466;-66
2023/10/26 03:22:10;;;;;;;16.23;11.52;;;12.10;84.10;;;;;;5096979;28;20023;-67
2023/10/26 03:24:37;;;;;;;15.45;10.40;;;12.10;84.10;;;;;;5093918;28;20490;-66
2023/10/26 03:27:03;;;;;;;16.77;10.40;;;12.10;84.10;;;;;;5092477;28;20012;-67
2023/10/26 03:29:28;;;;;;;14.60;10.80;;;12.10;84.20;;;;;;5092332;28;20137;-66
2023/10/26 03:31:54;;;;;;;16.42;11.10;;;12.10;84.20;;;;;;5095492;28;20028;-67
2023/10/26 03:34:21;;;;;;;15.65;11.32;;;12.20;84.20;;;;;;5097113;28;20109;-66
2023/10/26 03:36:47;;;;;;;15.60;10.15;;;12.20;84.20;;;;;;5095085;28;20403;-67
2023/10/26 03:39:13;;;;;;;15.90;10.70;;;12.20;84.20;;;;;;5095399;28;20070;-66
2023/10/26 03:41:42;;;;;;;15.98;11.68;;;12.10;84.20;;;;;;5095981;28;20077;-66
2023/10/26 03:44:08;;;;;;;16.90;11.57;;;12.20;84.20;;;;;;5094589;28;20036;-66
2023/10/26 03:46:34;;;;;;;15.98;11.52;;;12.10;84.20;;;;;;5094679;28;20030;-66
2023/10/26 03:49:00;;;;;;;14.73;10.13;;;12.20;84.30;;;;;;5094732;28;20107;-66
2023/10/26 03:51:25;;;;;;;15.05;10.52;;;12.20;84.20;;;;;;5097024;28;20110;-66
2023/10/26 03:53:51;;;;;;;16.30;11.35;;;12.20;84.30;;;;;;5091412;28;20368;-66
2023/10/26 03:56:17;;;;;;;14.95;10.10;;;12.10;84.20;;;;;;5094655;28;20024;-66
2023/10/26 03:58:42;;;;;;;16.38;11.38;;;12.10;84.20;;;;;;5095597;28;20059;-66
2023/10/26 04:01:09;;;;;;;16.42;11.23;;;12.10;84.10;;;;;;5093263;28;20071;-66
2023/10/26 04:03:35;;;;;;;14.98;9.90;;;12.10;84.10;;;;;;5074452;28;20051;-66
2023/10/26 04:06:00;;;;;;;15.27;10.93;;;12.10;84.10;;;;;;5094487;28;20032;-66
2023/10/26 04:08:26;;;;;;;15.07;10.18;;;12.10;84.10;;;;;;5095342;28;20038;-66
2023/10/26 04:10:52;;;;;;;15.38;10.70;;;12.10;84.10;;;;;;5092903;28;20072;-66
2023/10/26 04:13:17;;;;;;;16.10;10.85;;;12.10;84.10;;;;;;5094922;28;20425;-66
2023/10/26 04:15:43;;;;;;;16.80;11.63;;;12.10;84.00;;;;;;5093776;28;20023;-66
2023/10/26 04:18:09;;;;;;;17.20;10.70;;;12.10;84.00;;;;;;5095260;28;20372;-66
2023/10/26 04:20:34;;;;;;;15.75;11.77;;;12.10;84.00;;;;;;5090149;28;20117;-66
2023/10/26 04:23:00;;;;;;;15.63;10.38;;;12.10;84.00;;;;;;5092114;28;20097;-66
2023/10/26 04:25:29;;;;;;;15.48;10.82;;;12.10;83.90;;;;;;5089131;28;20055;-66
2023/10/26 04:27:57;;;;;;;16.75;11.18;;;12.10;83.90;;;;;;5084190;28;20119;-65
2023/10/26 04:30:23;;;;;;;14.27;10.68;;;12.00;83.80;;;;;;5086128;28;20103;-66
2023/10/26 04:32:50;;;;;;;15.75;10.77;;;12.00;83.80;;;;;;5090534;28;20416;-66
2023/10/26 04:35:15;;;;;;;14.82;10.93;;;12.00;83.80;;;;;;5093350;28;20453;-66
2023/10/26 04:37:41;;;;;;;17.17;11.05;;;12.00;83.80;;;;;;5093305;28;20046;-66
2023/10/26 04:40:08;;;;;;;15.98;10.02;;;12.00;83.80;;;;;;5075894;28;20025;-65
2023/10/26 04:42:34;;;;;;;15.73;9.88;;;12.00;83.80;;;;;;5090761;28;20024;-65
2023/10/26 04:44:59;;;;;;;15.10;10.88;;;12.00;83.80;;;;;;5093945;28;20038;-65
2023/10/26 04:47:25;;;;;;;15.63;10.05;;;12.00;83.80;;;;;;5072697;28;20108;-65
2023/10/26 04:49:51;;;;;;;15.20;10.52;;;12.00;83.80;;;;;;5094374;28;20024;-66
2023/10/26 04:52:19;;;;;;;15.60;11.02;;;12.00;83.80;;;;;;5090718;28;20648;-66
2023/10/26 04:54:44;;;;;;;15.98;11.02;;;12.00;83.80;;;;;;5092541;28;20062;-66
2023/10/26 04:57:10;;;;;;;15.93;10.85;;;12.00;83.80;;;;;;5113195;28;20359;-66
2023/10/26 04:59:36;;;;;;;15.18;10.38;;;12.00;83.80;;;;;;5098303;28;20035;-66
2023/10/26 05:02:02;;;;;;;16.33;10.77;;;12.00;83.80;;;;;;5105789;28;20449;-65
2023/10/26 05:04:27;;;;;;;15.68;11.02;;;11.90;83.70;;;;;;5100997;28;20027;-66
2023/10/26 05:06:53;;;;;;;15.02;10.63;;;11.90;83.70;;;;;;5114388;28;20088;-66
2023/10/26 05:09:19;;;;;;;15.60;10.38;;;11.90;83.80;;;;;;5104213;28;20027;-66
2023/10/26 05:11:45;;;;;;;16.00;10.50;;;11.90;83.80;;;;;;5081799;28;20035;-66
2023/10/26 05:14:11;;;;;;;15.38;10.80;;;11.90;83.70;;;;;;5092051;28;20039;-66
2023/10/26 05:16:37;;;;;;;15.77;10.38;;;11.90;83.70;;;;;;5098153;28;20030;-65
2023/10/26 05:19:03;;;;;;;17.70;11.38;;;11.90;83.70;;;;;;5084588;28;20024;-66
2023/10/26 05:21:28;;;;;;;17.85;11.93;;;11.90;83.80;;;;;;5079457;28;20048;-65
2023/10/26 05:23:54;;;;;;;15.73;11.30;;;11.80;83.80;;;;;;5084528;28;20454;-65
2023/10/26 05:26:20;;;;;;;18.40;12.13;;;11.90;83.80;;;;;;5105318;28;20156;-65
2023/10/26 05:28:47;;;;;;;18.52;11.82;;;11.90;83.80;;;;;;5071992;28;20058;-66
2023/10/26 05:31:12;;;;;;;17.13;12.15;;;11.90;83.80;;;;;;5086191;28;20478;-66
2023/10/26 05:33:38;;;;;;;17.25;11.23;;;11.90;83.80;;;;;;5089024;28;20115;-66
2023/10/26 05:36:04;;;;;;;16.70;11.32;;;11.90;83.80;;;;;;5086326;28;20094;-66
2023/10/26 05:38:30;;;;;;;18.42;11.73;;;11.90;83.80;;;;;;5084974;28;20056;-66
2023/10/26 05:40:56;;;;;;;17.77;11.63;;;11.90;83.80;;;;;;5086715;28;20078;-66
2023/10/26 05:43:22;;;;;;;15.55;11.20;;;11.90;83.80;;;;;;5084870;28;20028;-66
2023/10/26 05:45:48;;;;;;;15.13;10.35;;;11.90;83.90;;;;;;5086218;28;20020;-66
2023/10/26 05:48:16;;;;;;;16.25;10.75;;;11.90;83.80;;;;;;5084551;28;20073;-66
2023/10/26 05:50:42;;;;;;;15.45;10.55;;;11.90;83.80;;;;;;5070076;28;20078;-65
2023/10/26 05:53:12;;;;;;;15.57;10.90;;;11.80;83.80;;;;;;5085006;28;20055;-66
2023/10/26 05:55:40;;;;;;;16.20;10.98;;;11.90;83.80;;;;;;5080908;28;20348;-66
2023/10/26 05:58:08;;;;;;;16.45;10.57;;;11.90;83.80;;;;;;5057902;28;20054;-66
2023/10/26 06:00:34;;;;;;;15.40;9.82;;;11.80;83.70;;;;;;5081318;28;20066;-66
2023/10/26 06:03:00;;;;;;;16.48;11.05;;;11.80;83.80;;;;;;5087820;28;20028;-66
2023/10/26 06:05:27;;;;;;;15.80;10.27;;;11.80;83.70;;;;;;5096401;28;20016;-66
2023/10/26 06:07:52;;;;;;;15.90;10.50;;;11.80;83.80;;;;;;5097278;28;20306;-66
2023/10/26 06:10:18;;;;;;;14.82;9.70;;;11.80;83.80;;;;;;5096327;28;20036;-65
2023/10/26 06:12:44;;;;;;;14.38;9.65;;;11.80;83.80;;;;;;5097247;28;20084;-66
2023/10/26 06:15:10;;;;;;;15.07;10.48;;;11.70;83.70;;;;;;5096472;28;20028;-66
2023/10/26 06:17:36;;;;;;;15.27;10.18;;;11.70;83.70;;;;;;5088770;28;20111;-66
2023/10/26 06:20:01;;;;;;;14.02;9.27;;;11.70;83.70;;;;;;5086147;28;20020;-65
2023/10/26 06:22:27;;;;;;;15.57;9.90;;;11.70;84.30;;;;;;5092197;28;20031;-65
2023/10/26 06:24:53;;;;;;;15.90;10.65;;;11.70;84.30;;;;;;5083592;28;20016;-65
2023/10/26 06:27:19;;;;;;;17.95;11.13;;;11.70;83.70;;;;;;5083742;28;20021;-66
2023/10/26 06:29:45;;;;;;;15.95;10.45;;;11.70;83.70;;;;;;5083730;28;20024;-66
2023/10/26 06:32:12;;;;;;;17.27;11.18;;;11.70;83.70;;;;;;5078219;28;20036;-66
2023/10/26 06:34:37;;;;;;;16.17;10.70;;;11.70;83.70;;;;;;5059920;28;20452;-66
2023/10/26 06:37:03;;;;;;;16.55;11.23;;;11.70;83.60;;;;;;5086325;28;20021;-66
2023/10/26 06:39:29;;;;;;;15.18;10.35;;;11.70;83.60;;;;;;5078065;28;20441;-66
2023/10/26 06:41:56;;;;;;;15.93;9.73;;;11.60;83.50;;;;;;5078464;28;20021;-65
2023/10/26 06:44:23;;;;;;;17.10;10.57;;;11.70;83.60;;;;;;5077772;28;20448;-66
2023/10/26 06:46:49;;;;;;;17.85;10.48;;;11.70;83.60;;;;;;5076375;28;20032;-66
2023/10/26 06:49:15;;;;;;;15.65;10.10;;;11.70;83.70;;;;;;5059895;28;20078;-66
2023/10/26 06:51:40;;;;;;;13.80;9.13;;;11.70;83.70;;;;;;5076117;28;20456;-66
2023/10/26 06:54:06;;;;;;;15.02;10.02;;;11.70;83.70;;;;;;5079422;28;20047;-65
2023/10/26 06:56:32;;;;;;;16.65;9.20;;;11.70;83.80;;;;;;5092314;28;20078;-65
2023/10/26 06:58:58;;;;;;;17.42;9.70;;;11.70;83.70;;;;;;5091546;28;20040;-65
2023/10/26 07:01:23;;;;;;;15.70;9.40;;;11.70;83.80;;;;;;5080333;28;20036;-65
2023/10/26 07:03:50;;;;;;;14.05;9.65;;;11.70;83.80;;;;;;5077845;28;20073;-66
2023/10/26 07:06:16;;;;;;;13.10;8.45;;;11.70;83.80;;;;;;5077702;28;20513;-65
2023/10/26 07:08:42;;;;;;;31.15;9.77;;;11.70;83.80;;;;;;5087534;28;20056;-65
2023/10/26 07:11:09;;;;;;;13.88;8.55;;;11.70;83.80;;;;;;5090792;28;20024;-65
2023/10/26 07:13:35;;;;;;;16.67;8.68;;;11.60;83.70;;;;;;5086189;28;20059;-65
2023/10/26 07:16:01;;;;;;;13.23;8.38;;;11.70;83.80;;;;;;5094464;28;20032;-66
2023/10/26 07:18:27;;;;;;;17.50;9.20;;;11.70;83.90;;;;;;5095204;28;20032;-66
2023/10/26 07:20:53;;;;;;;16.33;9.10;;;11.70;83.80;;;;;;5092755;28;20034;-66
2023/10/26 07:23:19;;;;;;;15.18;8.70;;;11.70;83.80;;;;;;5096468;28;20021;-66
2023/10/26 07:25:45;;;;;;;15.32;9.18;;;11.70;83.80;;;;;;5094331;28;20444;-66
2023/10/26 07:28:12;;;;;;;19.00;9.35;;;11.80;83.80;;;;;;5094338;28;20066;-65
2023/10/26 07:30:42;;;;;;;14.60;9.35;;;11.70;83.70;;;;;;5090647;28;20032;-66
2023/10/26 07:33:08;;;;;;;16.30;9.60;;;11.80;83.80;;;;;;5095118;28;20344;-66
2023/10/26 07:35:40;;;;;;;14.50;8.23;;;11.70;83.90;;;;;;5093693;28;20028;-65
2023/10/26 07:38:07;;;;;;;13.40;9.27;;;11.70;83.80;;;;;;5110647;28;20031;-66
2023/10/26 07:40:33;;;;;;;18.70;9.20;;;11.70;83.80;;;;;;5093254;28;20040;-66
2023/10/26 07:42:59;;;;;;;17.25;8.48;;;11.80;83.80;;;;;;5073763;28;20063;-66
2023/10/26 07:45:28;;;;;;;14.32;8.25;;;11.70;83.80;;;;;;5092882;28;20028;-66
2023/10/26 07:47:55;;;;;;;18.05;8.82;;;11.80;83.90;;;;;;5094172;28;20478;-66
2023/10/26 07:50:22;;;;;;;17.75;9.55;;;11.80;83.90;;;;;;5090168;28;20028;-66
2023/10/26 07:52:48;;;;;;;13.90;9.02;;;11.80;83.90;;;;;;5091999;28;20035;-66
2023/10/26 07:55:14;;;;;;;21.23;9.93;;;11.70;83.90;;;;;;5090240;28;20040;-66
2023/10/26 07:57:43;;;;;;;21.15;10.13;;;11.80;84.00;;;;;;5100977;28;20463;-66
2023/10/26 08:00:11;;;;;;;18.80;8.60;;;11.80;83.90;;;;;;5098000;28;20029;-66
2023/10/26 08:02:40;;;;;;;17.80;9.30;;;11.80;83.80;;;;;;5095279;28;20055;-66
2023/10/26 08:05:07;;;;;;;12.82;8.38;;;11.90;83.80;;;;;;5096489;28;20020;-66
2023/10/26 08:07:33;;;;;;;14.73;9.38;;;11.90;83.90;;;;;;5092725;28;20027;-68
2023/10/26 08:09:59;;;;;;;13.40;9.05;;;11.90;83.80;;;;;;5115631;27;20042;-67
2023/10/26 08:12:24;;;;;;;14.88;9.23;;;11.90;83.80;;;;;;5100569;28;20363;-67
2023/10/26 08:14:55;;;;;;;14.55;9.88;;;11.90;83.70;;;;;;5110204;28;20136;-67
2023/10/26 08:17:21;;;;;;;13.43;9.15;;;12.00;83.70;;;;;;5098887;28;20031;-67
2023/10/26 08:19:53;;;;;;;14.85;9.88;;;12.00;83.70;;;;;;5110510;28;20493;-67
2023/10/26 08:22:20;;;;;;;14.95;10.07;;;12.00;83.70;;;;;;5098667;28;20044;-67
2023/10/26 08:24:48;;;;;;;13.60;9.55;;;12.10;83.70;;;;;;5103709;28;20077;-67
2023/10/26 08:27:13;;;;;;;14.98;9.57;;;12.10;83.60;;;;;;5094824;28;20028;-67
2023/10/26 08:29:39;;;;;;;13.15;9.25;;;12.10;83.60;;;;;;5102688;28;20030;-68
2023/10/26 08:32:05;;;;;;;14.23;9.60;;;12.10;83.60;;;;;;5094913;28;20028;-67
2023/10/26 08:34:31;;;;;;;15.13;9.13;;;12.10;83.60;;;;;;5090669;28;20134;-66
2023/10/26 08:36:59;;;;;;;14.23;10.13;;;12.20;83.60;;;;;;5093431;28;20024;-67
2023/10/26 08:39:25;;;;;;;14.70;9.75;;;12.20;83.50;;;;;;5093314;28;20485;-67
2023/10/26 08:41:51;;;;;;;16.92;10.02;;;12.20;83.50;;;;;;5097261;28;20066;-67
2023/10/26 08:44:18;;;;;;;14.95;9.38;;;12.30;83.60;;;;;;5113864;28;20122;-67
2023/10/26 08:46:52;;;;;;;13.65;9.25;;;12.30;83.60;;;;;;5097349;28;20409;-66
2023/10/26 08:49:21;;;;;;;13.95;8.70;;;12.30;83.40;;;;;;5113628;28;20228;-67
2023/10/26 08:51:47;;;;;;;14.57;9.95;;;12.40;83.40;;;;;;5076817;28;20483;-66
2023/10/26 08:54:13;;;;;;;14.75;9.90;;;12.40;83.40;;;;;;5111899;28;20031;-68
2023/10/26 08:56:39;;;;;;;13.85;9.50;;;12.40;83.30;;;;;;5083647;28;20024;-67
2023/10/26 08:59:04;;;;;;;13.13;8.68;;;12.40;83.90;;;;;;5077082;28;20342;-67
2023/10/26 09:01:30;;;;;;;13.00;8.63;;;12.40;83.20;;;;;;5077346;28;20477;-67
2023/10/26 09:03:57;;;;;;;12.88;8.93;;;12.50;83.20;;;;;;5075800;28;20368;-67
2023/10/26 09:06:23;;;;;;;14.73;9.57;;;12.50;83.10;;;;;;5072786;28;20098;-67
2023/10/26 09:09:01;;;;;;;15.25;10.48;;;12.50;83.00;;;;;;5064397;28;20352;-67
2023/10/26 09:11:27;;;;;;;13.85;9.02;;;12.60;83.00;;;;;;5079325;28;20031;-68
2023/10/26 09:13:53;;;;;;;13.82;9.68;;;12.50;82.90;;;;;;5076607;28;20033;-67
2023/10/26 09:16:33;;;;;;;13.85;9.43;;;12.50;83.00;;;;;;5077662;28;20322;-67
2023/10/26 09:18:59;;;;;;;13.98;9.90;;;12.50;83.10;;;;;;5073193;28;20021;-66
2023/10/26 09:21:25;;;;;;;14.52;9.75;;;12.50;83.10;;;;;;5080465;28;20028;-67
2023/10/26 09:23:50;;;;;;;14.88;10.52;;;12.50;83.20;;;;;;5076502;28;20021;-67
2023/10/26 09:26:16;;;;;;;15.07;10.15;;;12.50;83.10;;;;;;5077673;28;20089;-66
2023/10/26 09:28:56;;;;;;;14.95;10.20;;;12.50;83.10;;;;;;5072084;28;20333;-66
2023/10/26 09:31:24;;;;;;;15.13;10.20;;;12.50;83.10;;;;;;5057370;28;20066;-67
2023/10/26 09:33:50;;;;;;;16.70;11.05;;;12.50;83.00;;;;;;5057865;28;20028;-66
2023/10/26 09:36:18;;;;;;;15.80;9.73;;;12.60;83.10;;;;;;5063146;28;20055;-66
2023/10/26 09:38:44;;;;;;;15.65;11.18;;;12.60;83.00;;;;;;5076763;28;20020;-66
2023/10/26 09:41:15;;;;;;;16.20;11.05;;;12.60;83.00;;;;;;5073901;28;20370;-67
2023/10/26 09:43:41;;;;;;;17.33;11.70;;;12.70;83.00;;;;;;5080271;28;20031;-66
2023/10/26 09:46:08;;;;;;;17.35;11.27;;;12.70;83.00;;;;;;5075564;28;20453;-66
2023/10/26 09:48:34;;;;;;;18.35;11.80;;;12.70;83.00;;;;;;5074679;28;20062;-67
2023/10/26 09:51:01;;;;;;;19.70;12.77;;;12.70;82.90;;;;;;5084768;28;20507;-67
2023/10/26 09:53:37;;;;;;;19.88;13.15;;;12.60;82.80;;;;;;5073296;28;20028;-67
2023/10/26 09:56:05;;;;;;;20.00;13.70;;;12.60;82.90;;;;;;5089363;28;20027;-67
2023/10/26 09:58:39;;;;;;;22.23;14.43;;;12.60;82.90;;;;;;5073645;28;20041;-67
2023/10/26 10:01:37;;;;;;;21.98;13.88;;;12.60;82.90;;;;;;5088156;28;20429;-67
2023/10/26 10:04:04;;;;;;;19.60;13.38;;;12.60;82.90;;;;;;5084214;28;20039;-67
2023/10/26 10:06:53;;;;;;;21.50;14.52;;;12.60;82.90;;;;;;5084643;28;20369;-67
2023/10/26 10:09:23;;;;;;;21.95;13.77;;;12.70;82.90;;;;;;5086594;28;20143;-67
2023/10/26 10:12:13;;;;;;;19.40;13.07;;;12.60;82.90;;;;;;5085915;28;20067;-67
2023/10/26 10:15:06;;;;;;;20.63;12.77;;;12.80;82.90;;;;;;5085489;28;20028;-67
2023/10/26 10:17:44;;;;;;;19.98;13.48;;;12.80;82.50;;;;;;5085686;28;21511;-67
2023/10/26 10:20:18;;;;;;;22.17;14.48;;;12.90;82.30;;;;;;5076671;28;20024;-67
2023/10/26 10:22:44;;;;;;;20.95;14.50;;;12.80;82.20;;;;;;5081882;28;20027;-67
2023/10/26 10:25:11;;;;;;;20.88;15.13;;;12.80;82.10;;;;;;5088146;28;20128;-67
2023/10/26 10:27:41;;;;;;;20.63;14.48;;;12.80;82.10;;;;;;5089217;28;20090;-67
2023/10/26 10:30:13;;;;;;;20.80;13.45;;;12.80;82.20;;;;;;5086037;28;20148;-67
2023/10/26 10:32:46;;;;;;;19.90;13.68;;;12.80;82.20;;;;;;5088262;28;20051;-67
2023/10/26 10:35:22;;;;;;;19.23;14.35;;;12.80;82.20;;;;;;5081113;28;20036;-68
2023/10/26 10:38:16;;;;;;;19.27;12.93;;;12.80;82.30;;;;;;5086057;28;20042;-68
2023/10/26 10:41:07;;;;;;;22.30;14.65;;;12.80;82.30;;;;;;5086829;28;20432;-67
2023/10/26 10:43:43;;;;;;;18.60;13.25;;;12.80;82.30;;;;;;5063821;28;20036;-67
2023/10/26 10:46:25;;;;;;;22.00;14.35;;;12.90;82.30;;;;;;5088680;28;20128;-67
2023/10/26 10:49:05;;;;;;;21.58;14.20;;;12.90;82.20;;;;;;5090625;28;20093;-67
2023/10/26 10:51:39;;;;;;;20.42;14.07;;;12.90;82.20;;;;;;5091992;28;20063;-67
2023/10/26 10:54:07;;;;;;;21.92;14.43;;;13.00;82.20;;;;;;5090097;28;20502;-68
2023/10/26 10:56:43;;;;;;;23.33;15.45;;;13.00;82.00;;;;;;5089154;28;20068;-67
2023/10/26 10:59:25;;;;;;;23.20;16.67;;;13.10;82.60;;;;;;5089964;28;20028;-67
2023/10/26 11:02:13;;;;;;;23.55;15.60;;;13.10;81.80;;;;;;5065338;28;20485;-67
2023/10/26 11:04:56;;;;;;;22.55;15.18;;;13.20;81.80;;;;;;5082399;28;20020;-67
2023/10/26 11:07:30;;;;;;;25.58;15.75;;;13.20;81.70;;;;;;5069750;28;20028;-67
2023/10/26 11:09:57;;;;;;;24.80;16.70;;;13.20;81.70;;;;;;5088148;28;20090;-67
2023/10/26 11:12:23;;;;;;;22.40;14.85;;;13.20;81.80;;;;;;5089800;28;20403;-67
2023/10/26 11:14:50;;;;;;;22.52;15.35;;;13.20;81.80;;;;;;5089462;28;20043;-67
2023/10/26 11:17:27;;;;;;;21.50;15.30;;;13.20;81.70;;;;;;5088429;28;20367;-67
2023/10/26 11:19:53;;;;;;;21.67;14.50;;;13.30;81.70;;;;;;5060064;28;20103;-67
2023/10/26 11:22:20;;;;;;;23.00;14.73;;;13.30;81.70;;;;;;5082462;28;20435;-67
2023/10/26 11:24:46;;;;;;;18.75;12.70;;;13.40;81.60;;;;;;5089758;28;20028;-67
2023/10/26 11:27:14;;;;;;;20.75;13.57;;;13.40;81.50;;;;;;5089472;28;20020;-67
2023/10/26 11:29:40;;;;;;;19.70;13.30;;;13.40;81.40;;;;;;5088591;28;20463;-67
2023/10/26 11:32:20;;;;;;;18.98;13.07;;;13.50;81.40;;;;;;5072682;28;20164;-67
2023/10/26 11:35:06;;;;;;;18.80;13.07;;;13.40;81.20;;;;;;5089943;28;20451;-68
2023/10/26 11:37:36;;;;;;;18.75;13.35;;;13.40;81.10;;;;;;5087601;28;21841;-67
2023/10/26 11:40:04;;;;;;;20.45;13.70;;;13.40;81.20;;;;;;5085328;28;20016;-68
2023/10/26 11:42:50;;;;;;;21.23;14.35;;;13.30;81.20;;;;;;5087462;28;20065;-67
2023/10/26 11:45:19;;;;;;;19.98;13.68;;;13.30;81.20;;;;;;5089278;28;20051;-67
2023/10/26 11:47:46;;;;;;;17.80;12.23;;;13.30;81.40;;;;;;5088449;28;20031;-67
2023/10/26 11:50:22;;;;;;;19.95;13.32;;;13.30;81.40;;;;;;5086882;28;20115;-67
2023/10/26 11:52:49;;;;;;;19.20;13.40;;;13.20;81.40;;;;;;5086712;28;20019;-67
2023/10/26 11:55:15;;;;;;;19.25;12.80;;;13.20;81.50;;;;;;5084484;28;20162;-67
2023/10/26 11:57:41;;;;;;;18.30;13.02;;;13.20;81.50;;;;;;5086075;28;20126;-67
2023/10/26 12:00:08;;;;;;;22.88;14.07;;;13.20;81.50;;;;;;5086247;28;20115;-68
2023/10/26 12:02:39;;;;;;;18.73;13.88;;;13.20;81.50;;;;;;5085484;28;20040;-68
2023/10/26 12:05:06;;;;;;;19.77;13.82;;;13.20;81.50;;;;;;5087433;28;20051;-68
2023/10/26 12:07:32;;;;;;;21.48;14.50;;;13.10;81.50;;;;;;5092454;28;20368;-69
2023/10/26 12:09:58;;;;;;;20.40;14.23;;;13.10;81.50;;;;;;5083796;28;20148;-68
2023/10/26 12:12:25;;;;;;;21.88;15.05;;;13.10;81.50;;;;;;5085572;28;20028;-68
2023/10/26 12:14:51;;;;;;;23.48;15.75;;;13.10;81.50;;;;;;5092825;28;20016;-68
2023/10/26 12:17:16;;;;;;;21.90;15.45;;;13.10;81.50;;;;;;5093478;28;20463;-68
2023/10/26 12:19:42;;;;;;;20.52;14.40;;;13.10;81.50;;;;;;5093511;28;20042;-68
2023/10/26 12:22:08;;;;;;;21.25;14.70;;;13.10;81.60;;;;;;5088228;28;20026;-68
2023/10/26 12:24:35;;;;;;;21.77;15.38;;;13.10;81.60;;;;;;5085167;28;20119;-68
2023/10/26 12:27:02;;;;;;;20.55;14.35;;;13.10;81.60;;;;;;5074428;28;20020;-67
2023/10/26 12:29:31;;;;;;;23.00;15.07;;;13.10;81.60;;;;;;5085345;28;20028;-68
2023/10/26 12:31:57;;;;;;;23.10;14.90;;;13.20;81.80;;;;;;5092060;28;20092;-67
2023/10/26 12:34:23;;;;;;;20.23;14.00;;;13.10;81.80;;;;;;5083173;28;20441;-67